Last 24 Hours

Coyote Canyon

10 Minute Data | America/Los_Angeles
as of 1/27/20 12:25 PM PST
Date & Time Temp (°F) Dew Pt (°F) RH (%) Wind Spd (mph) Wind Dir (°) Wind Gust (mph) Wind Gst Dir (°) Daily Max Temp (°F) Daily Min Temp (°F)
1/27/20 - 1220 61.3 28.3 28 4.1 SSE | 163 13.4 S | 175 62.0 41.8
1/27/20 - 1210 60.0 26.3 27 4.8 ENE | 59 11.8 NE | 40 61.5 41.8
1/27/20 - 1200 60.4 28.3 29 5.8 ESE | 102 10.5 SE | 128 61.5 41.8
1/27/20 - 1150 59.9 27.3 29 3.5 E | 84 9.6 SE | 142 60.7 41.8
1/27/20 - 1140 59.7 29.2 31 6.2 SSE | 147 9.4 SE | 128 60.7 41.8
1/27/20 - 1130 59.6 29.2 31 8.4 SSE | 150 12.9 SE | 139 60.3 41.8
1/27/20 - 1120 58.7 26.7 29 8.0 NE | 36 13.4 NNE | 17 60.3 41.8
1/27/20 - 1110 58.6 26.6 29 9.0 NNE | 21 18.0 NNE | 31 60.3 41.8
1/27/20 - 1100 59.4 30.4 33 4.2 SE | 140 9.6 SE | 127 60.3 41.8
1/27/20 - 1050 58.1 30.0 34 5.9 SE | 136 10.5 ESE | 120 59.1 41.8
1/27/20 - 1040 58.2 29.8 34 7.1 SE | 127 11.8 SE | 128 59.1 41.8
1/27/20 - 1030 58.5 29.7 33 8.4 SE | 127 13.4 SE | 130 59.1 41.8
1/27/20 - 1020 57.6 30.4 35 6.9 ESE | 121 12.9 SE | 129 58.8 41.8
1/27/20 - 1010 57.6 29.5 34 8.6 ESE | 109 14.7 SE | 130 58.3 41.8
1/27/20 - 1000 56.3 25.7 30 13.6 NE | 48 24.1 NE | 34 57.2 41.8
1/27/20 - 0950 55.6 24.7 30 20.1 NE | 35 31.1 NE | 34 56.3 41.8
1/27/20 - 0940 55.3 24.5 30 21.4 NNE | 27 28.9 NNE | 25 55.7 41.8
1/27/20 - 0930 54.7 24.2 30 21.0 NNE | 24 30.2 NNE | 28 55.1 41.8
1/27/20 - 0920 54.3 23.6 30 21.0 NNE | 26 29.2 NNE | 22 54.7 41.8
1/27/20 - 0910 54.1 23.5 30 24.6 NNE | 20 33.3 NNE | 16 54.4 41.8
1/27/20 - 0900 53.9 23.6 31 26.8 NNE | 23 36.0 NNE | 22 54.3 41.8
1/27/20 - 0850 53.8 23.9 31 23.1 NNE | 24 32.9 NE | 37 54.1 41.8
1/27/20 - 0840 53.5 24.1 32 21.2 NNE | 27 31.4 N | 11 53.9 41.8
1/27/20 - 0830 53.2 24.0 32 14.4 NE | 35 22.8 NNE | 30 53.6 41.8
1/27/20 - 0820 53.1 24.0 32 16.1 NE | 36 24.3 NNE | 22 53.4 41.8
1/27/20 - 0810 53.2 26.7 36 16.4 NE | 44 23.2 NE | 51 53.4 41.8
1/27/20 - 0800 52.8 26.9 36 20.4 NE | 41 27.0 NE | 38 53.3 41.8
1/27/20 - 0750 52.2 27.7 39 17.9 NE | 36 25.6 NE | 43 52.7 41.8
1/27/20 - 0740 51.7 28.4 40 18.6 NE | 35 26.3 NE | 34 52.2 41.8
1/27/20 - 0730 51.2 27.9 40 18.1 NNE | 30 25.9 NNE | 31 51.7 41.8
1/27/20 - 0720 50.1 28.1 42 14.5 NNE | 30 21.0 NNE | 24 51.6 41.8
1/27/20 - 0710 49.0 29.3 46 10.2 NNE | 29 16.0 NNE | 29 51.6 41.8
1/27/20 - 0700 49.9 29.9 46 12.6 NNE | 32 18.2 NE | 34 51.6 41.8
1/27/20 - 0650 50.4 29.9 45 16.8 NE | 35 24.1 NE | 41 51.6 41.8
1/27/20 - 0640 49.7 30.1 47 12.5 NE | 39 17.5 NE | 40 51.6 41.8
1/27/20 - 0630 50.1 30.4 46 12.1 NE | 43 17.1 NE | 40 51.6 41.8
1/27/20 - 0620 50.4 30.9 47 12.5 NE | 46 16.4 NE | 44 51.6 41.8
1/27/20 - 0610 49.5 31.2 49 12.5 NE | 43 16.9 NE | 44 51.6 41.8
1/27/20 - 0600 49.3 31.4 50 10.4 NE | 38 14.5 NE | 39 51.6 41.8
1/27/20 - 0550 50.4 31.4 48 7.7 NE | 49 12.9 NE | 43 51.6 41.8
1/27/20 - 0540 50.8 31.4 47 7.2 NE | 56 12.7 NE | 54 51.6 41.8
1/27/20 - 0530 51.2 31.3 46 9.0 ENE | 57 15.6 NE | 45 51.6 41.8
1/27/20 - 0520 50.4 31.2 48 8.3 NE | 49 14.9 NNE | 23 51.5 41.8
1/27/20 - 0510 48.0 30.9 51 5.1 N | 349 18.2 NNE | 30 50.6 41.8
1/27/20 - 0500 45.8 30.4 55 5.9 WNW | 302 10.3 WNW | 298 50.6 41.8
1/27/20 - 0450 47.4 30.0 51 4.9 WNW | 300 8.8 NW | 321 50.6 41.8
1/27/20 - 0440 47.6 29.9 50 5.4 NW | 307 10.1 NW | 312 50.6 41.8
1/27/20 - 0430 48.8 29.7 47 5.1 WNW | 293 8.6 NW | 304 50.6 41.8
1/27/20 - 0420 49.8 29.7 46 3.6 NW | 320 6.6 NNE | 13 50.6 41.8
1/27/20 - 0410 47.3 29.7 50 6.4 NW | 310 10.3 WNW | 294 49.4 41.8
1/27/20 - 0400 42.8 29.4 59 8.8 WNW | 302 11.6 NW | 320 47.6 41.8
1/27/20 - 0350 44.7 29.4 55 6.2 WNW | 298 11.6 WNW | 283 47.6 42.9
1/27/20 - 0340 46.5 29.8 52 7.0 NW | 308 13.2 NNW | 339 47.6 43.6
1/27/20 - 0330 44.7 30.2 57 7.7 NW | 304 13.4 WNW | 290 46.6 43.6
1/27/20 - 0320 44.9 30.4 56 12.4 WNW | 298 18.8 WNW | 298 46.4 43.7
1/27/20 - 0310 45.5 30.6 56 11.7 NW | 305 16.4 WNW | 289 46.2 43.7
1/27/20 - 0300 45.1 30.6 57 13.0 NW | 307 15.6 WNW | 298 46.2 43.7
1/27/20 - 0250 45.4 30.3 55 14.8 WNW | 299 19.7 WNW | 290 46.2 43.7
1/27/20 - 0240 45.8 30.7 55 15.1 WNW | 301 18.6 NW | 307 46.2 43.7
1/27/20 - 0230 45.5 30.8 56 16.0 NW | 304 20.4 NW | 311 46.2 43.7
1/27/20 - 0220 45.8 30.7 55 16.9 NW | 311 21.3 NW | 314 46.2 43.7
1/27/20 - 0210 45.5 30.1 54 18.7 NW | 311 22.4 NW | 318 46.0 43.7
1/27/20 - 0200 45.7 30.1 54 18.8 NW | 313 22.6 NW | 312 46.0 43.7
1/27/20 - 0150 44.9 30.7 57 19.3 NW | 313 23.0 NW | 317 45.7 43.7
1/27/20 - 0140 44.5 31.0 59 17.8 NW | 310 21.7 NW | 309 45.5 43.7
1/27/20 - 0130 44.3 31.8 61 17.1 NW | 310 21.7 NW | 306 45.5 43.7
1/27/20 - 0120 44.1 32.4 63 16.3 NW | 309 21.0 NW | 311 45.5 43.7
1/27/20 - 0110 44.0 32.1 63 16.9 NW | 304 21.0 NW | 307 45.5 43.7
1/27/20 - 0100 44.0 31.6 61 17.1 WNW | 301 20.8 WNW | 300 45.5 43.7
1/27/20 - 0050 44.6 31.4 60 15.9 NW | 307 20.2 NW | 305 45.5 44.4
1/27/20 - 0040 44.8 31.6 59 17.2 NW | 311 21.3 NW | 309 45.5 44.6
1/27/20 - 0030 45.1 31.6 59 19.1 NW | 311 24.3 NW | 317 45.5 44.7
1/27/20 - 0020 45.0 30.8 57 18.9 NW | 311 24.3 NW | 311 45.3 44.7
1/27/20 - 0010 44.9 30.8 57 17.2 NW | 309 22.4 NW | 304 45.3 44.8
1/27/20 - 0000 45.2 30.8 57 17.2 NW | 304 21.7 WNW | 300 60.3 41.4
1/26/20 - 2350 45.0 31.0 58 17.7 WNW | 302 22.4 WNW | 301 60.3 41.4
1/26/20 - 2340 45.9 30.6 55 17.5 WNW | 302 22.6 WNW | 292 60.3 41.4
1/26/20 - 2330 46.3 30.6 54 15.8 NW | 310 20.4 WNW | 303 60.3 41.4
1/26/20 - 2320 45.6 31.8 58 15.7 NW | 307 20.6 WNW | 303 60.3 41.4
1/26/20 - 2310 45.8 31.1 56 16.5 NW | 306 22.1 WNW | 301 60.3 41.4
1/26/20 - 2300 46.2 30.3 54 15.0 NW | 307 20.2 NW | 305 60.3 41.4
1/26/20 - 2250 47.0 30.5 52 16.6 NW | 311 22.4 NW | 313 60.3 41.4
1/26/20 - 2240 47.6 30.9 52 18.2 NW | 315 23.4 NW | 314 60.3 41.4
1/26/20 - 2230 46.9 32.6 57 17.6 NW | 318 21.7 NW | 308 60.3 41.4
1/26/20 - 2220 46.2 33.8 62 18.4 NW | 314 22.4 NW | 317 60.3 41.4
1/26/20 - 2210 46.0 35.6 67 17.2 NW | 308 23.9 NW | 308 60.3 41.4
1/26/20 - 2200 45.9 36.0 68 17.9 NW | 310 22.8 WNW | 302 60.3 41.4
1/26/20 - 2150 45.7 36.3 70 16.1 NW | 309 21.3 NW | 305 60.3 41.4
1/26/20 - 2140 46.0 36.6 69 16.6 NW | 308 23.4 WNW | 300 60.3 41.4
1/26/20 - 2130 46.1 36.8 70 17.4 NW | 305 23.9 NW | 305 60.3 41.4
1/26/20 - 2120 46.0 37.0 71 16.6 NW | 310 23.9 NW | 305 60.3 41.4
1/26/20 - 2110 43.8 38.0 80 11.8 NW | 325 18.4 NW | 314 60.3 41.4
1/26/20 - 2100 43.1 38.5 84 10.7 NW | 305 15.6 WNW | 303 60.3 41.4
1/26/20 - 2050 43.1 38.1 82 11.5 NW | 305 16.0 NW | 310 60.3 41.4
1/26/20 - 2040 41.9 39.6 92 11.3 NW | 308 14.2 NW | 309 60.3 41.4
1/26/20 - 2030 41.6 40.4 95 12.0 WNW | 302 14.9 WNW | 297 60.3 41.4
1/26/20 - 2020 41.9 40.6 95 11.3 WNW | 295 13.8 WNW | 297 60.3 41.6
1/26/20 - 2010 42.0 40.6 95 12.4 WNW | 299 15.3 WNW | 287 60.3 41.6
1/26/20 - 2000 41.9 40.4 94 12.6 WNW | 300 16.0 WNW | 299 60.3 41.6
1/26/20 - 1950 41.8 40.0 93 13.6 WNW | 300 16.9 WNW | 301 60.3 41.6
1/26/20 - 1940 42.3 40.1 92 13.5 WNW | 301 16.7 NW | 305 60.3 42.1
1/26/20 - 1930 42.4 39.9 91 14.3 WNW | 302 17.1 WNW | 293 60.3 42.3
1/26/20 - 1920 43.0 40.1 90 12.3 NW | 304 16.4 NW | 313 60.3 42.7
1/26/20 - 1910 43.5 39.9 87 12.4 NW | 307 16.7 NW | 318 60.3 43.2
1/26/20 - 1900 44.5 39.4 82 11.9 WNW | 296 16.0 WNW | 294 60.3 44.0
1/26/20 - 1850 45.0 38.3 77 13.4 WNW | 302 18.0 WNW | 301 60.3 44.8
1/26/20 - 1840 45.4 37.2 73 13.7 NW | 304 18.4 NW | 312 60.3 45.2
1/26/20 - 1830 46.2 37.0 70 14.6 NW | 311 19.1 NW | 310 60.3 45.6
1/26/20 - 1820 46.5 37.4 70 15.2 NW | 312 19.3 NW | 307 60.3 46.3
1/26/20 - 1810 47.2 37.2 68 13.8 NW | 309 19.5 NW | 309 60.3 46.7
1/26/20 - 1800 47.6 36.6 65 14.4 WNW | 303 20.0 WNW | 303 60.3 47.5
1/26/20 - 1750 47.9 36.6 65 13.5 WNW | 303 18.4 WNW | 300 60.3 47.9
1/26/20 - 1740 48.2 36.2 63 10.3 NW | 305 15.1 NW | 313 60.3 47.9
1/26/20 - 1730 49.0 35.9 60 11.1 WNW | 295 14.2 WNW | 294 60.3 48.6
1/26/20 - 1720 50.1 35.2 56 11.7 WNW | 288 16.7 W | 279 60.3 49.4
1/26/20 - 1710 51.4 34.0 51 12.9 WNW | 288 16.9 WNW | 287 60.3 50.3
1/26/20 - 1700 52.2 33.9 50 11.2 WNW | 291 15.3 W | 276 60.3 50.3
1/26/20 - 1650 53.0 33.4 47 12.4 WNW | 282 18.6 W | 279 60.3 50.3
1/26/20 - 1640 54.0 34.1 47 11.2 W | 281 17.1 WNW | 292 60.3 50.3
1/26/20 - 1630 54.8 31.0 40 12.1 W | 278 17.5 W | 266 60.3 50.3
1/26/20 - 1620 55.6 30.6 38 15.0 W | 271 20.6 W | 272 60.3 50.3
1/26/20 - 1610 56.4 28.3 34 13.2 W | 273 18.4 W | 274 60.3 50.3
1/26/20 - 1600 56.8 26.8 31 11.7 W | 265 16.7 WSW | 256 60.3 50.3
1/26/20 - 1550 56.9 27.4 32 11.3 W | 268 16.9 W | 266 60.3 50.3
1/26/20 - 1540 57.4 27.5 32 10.2 W | 270 16.7 WSW | 250 60.3 50.3
1/26/20 - 1530 57.5 26.7 31 11.9 W | 264 17.1 WSW | 258 60.3 50.3
1/26/20 - 1520 57.4 25.7 29 12.3 W | 273 19.5 W | 267 60.3 50.3
1/26/20 - 1510 57.3 26.3 30 13.5 W | 277 19.7 WNW | 287 60.3 50.3
1/26/20 - 1500 57.3 26.6 31 13.0 W | 275 17.5 W | 259 60.3 50.3
1/26/20 - 1450 57.0 27.9 33 12.4 WNW | 282 19.1 WNW | 282 60.3 50.3
1/26/20 - 1440 57.1 27.5 32 13.1 WNW | 285 20.8 WNW | 301 60.3 50.3
1/26/20 - 1430 56.8 28.2 33 15.6 WNW | 290 22.6 WNW | 299 60.3 50.3
1/26/20 - 1420 57.5 27.1 31 14.4 W | 275 21.0 WNW | 289 60.3 50.3
1/26/20 - 1410 57.1 27.0 31 15.1 WNW | 285 21.3 WNW | 289 60.3 50.3
1/26/20 - 1400 58.1 29.2 33 14.1 W | 280 23.4 WNW | 286 60.3 50.3
1/26/20 - 1350 58.6 32.0 36 13.3 W | 275 20.6 WNW | 283 60.3 50.3
1/26/20 - 1340 58.8 31.6 35 13.7 W | 269 19.7 W | 270 60.3 50.3
1/26/20 - 1330 58.3 29.9 34 15.5 W | 278 23.7 WNW | 288 59.9 50.3
1/26/20 - 1320 58.0 30.4 35 17.0 WNW | 286 23.7 WNW | 282 59.9 50.3
1/26/20 - 1310 58.6 27.4 30 16.2 WNW | 286 21.0 WNW | 291 59.9 50.3
1/26/20 - 1300 58.5 26.1 29 13.1 WNW | 288 19.1 W | 281 59.9 50.3
1/26/20 - 1250 58.5 28.8 32 13.6 WNW | 291 20.2 WNW | 282 59.9 50.3
1/26/20 - 1240 58.2 29.7 34 12.0 WNW | 287 16.9 WNW | 287 59.9 50.3
1/26/20 - 1230 58.4 28.3 32 12.4 WNW | 287 16.9 WNW | 282 59.9 50.3
1/26/20 - 1220 58.4 27.0 30 13.3 WNW | 285 18.2 WNW | 289 59.9 50.3
Max 61.3 40.6 95 26.8 - 36.0 - 62.0 50.3
Avg 50.4 31.1 50 13.4 - 18.9 - - -
Min 41.6 23.5 27 3.5 - 6.6 - 45.3 41.4